Wolf Point, MT

10:10 PM MDT on August 30, 2014 (GMT -0600)
East of Macon | Change Station
CLOSE
Current Station
Personal Weather Station
Location: Wolf Point, MT
Elevation: 1987 ft
Nearby Weather Stations

Elev 1987 ft 48.11 °N, 105.47 °W | Updated 4 minutes ago

Clear
Clear
57.6 °F
Feels Like 57.6 °F
N
1.0
Wind Variable Wind from SE
Gusts 2.0 mph

Today
High -- | Low -- °F
--% Chance of Precip.
Yesterday
High -- | Low -- °F
Precip. -- in
6:17 AM 7:47 PM
Waxing Crescent, 27% visible
Pressure 29.70 in
Visibility 10.0 miles
Clouds Clear
Dew Point 56 °F
Humidity 93%
Rainfall 0.17 in
Snow Depth Not available.
UV 0 out of 12
Pollen 8.90 out of 12
Air Quality Not available.
Flu Activity Not available.
METAR KOLF 310353Z AUTO 00000KT 10SM CLR 16/13 A2971 RMK AO2 SLP058 T01560133

More Conditions Fewer Conditions

Pressure 29.70 in
Visibility 10.0 miles
Clouds Clear
Dew Point 56 °F
Humidity 93%
Rainfall 0.17 in
Snow Depth Not available.
UV 0 out of 12
Pollen 8.90 out of 12
Air Quality Not available.
Flu Activity Not available.
METAR KOLF 310353Z AUTO 00000KT 10SM CLR 16/13 A2971 RMK AO2 SLP058 T01560133

More Conditions Fewer Conditions

10-Day Weather Forecast

Almanac

Astronomy

Aug. 30, 2014 Rise Set
Actual Time 6:17 AM MDT 7:47 PM MDT
Civil Twilight 5:44 AM MDT 8:19 PM MDT
Nautical Twilight 5:05 AM MDT 8:58 PM MDT
Astronomical Twilight 4:22 AM MDT 9:41 PM MDT
Moon 11:32 AM MDT (8/30) 9:57 PM MDT (8/30)
Length of Visible Light 14h 34m
Length of Day
13h 29m
Tomorrow will be 3m 21s shorter.
Waxing Crescent, 27% of the Moon is Illuminated
Aug 31
Waxing Crescent
Sep 2
First Quarter
Sep 8
Full
Sep 15
Last Quarter
Sep 24
New

Today's Extremes

State Highs State Lows

Community

WunderPhotos

Upload Photos

1,748,779 photos uploaded!

Nearby

Snow Depth

Station Depth Elevation
Crystal Lake 0 in 6050 ft
Daisy Peak 0 in 7600 ft
Spur Park 0 in 8100 ft
Deadman Creek 0 in 6450 ft
Onion Park 0 in 7410 ft

Earthquake Activity

City Distance Mag. Time & Date
No recent earthquake activity has been reported nearby.
Minimum magnitude displayed is 2.5.

Coastal Water Temperatures

Place Temperature
No Stations Reporting

Nearby Weather Stations